Time;durP1;ratioP1;P1;durP2;ratioP2;P2;SDS_P1;SDS_P2;PMS_P1;PMS_P2;Temp;Humidity;BMP_temperature;BMP_pressure;BME280_temperature;BME280_humidity;BME280_pressure;Samples;Min_cycle;Max_cycle;Signal;HPM_P1;HPM_P2
2021/08/21 00:04:22;;;;;;;;;;;;;;;;;;;;;
2021/08/21 00:07:52;;;;;;;;;;;;;;;;;;;;;
2021/08/21 00:18:22;;;;;;;1.35;0.98;;;;;;;17.16;69.99;92956.25;4884029;29;20051;-93
2021/08/21 00:21:55;;;;;;;;;;;;;;;;;;;;;
2021/08/21 00:25:27;;;;;;;;;;;;;;;;;;;;;
2021/08/21 00:32:43;;;;;;;;;;;;;;;;;;;;;
2021/08/21 00:43:34;;;;;;;;;;;;;;;;;;;;;
2021/08/21 00:47:01;;;;;;;2.55;1.15;;;;;;;17.03;71.03;92952.69;4955676;28;20119;-94
2021/08/21 00:51:04;;;;;;;;;;;;;;;;;;;;;
2021/08/21 00:54:42;;;;;;;;;;;;;;;;;;;;;
2021/08/21 00:58:00;;;;;;;2.90;1.83;;;;;;;16.90;71.48;92972.91;4999728;28;20031;-95
2021/08/21 01:01:39;;;;;;;1.40;0.85;;;;;;;16.80;71.53;92954.75;4988953;28;20041;-94
2021/08/21 01:05:19;;;;;;;;;;;;;;;;;;;;;
2021/08/21 01:11:58;;;;;;;;;;;;;;;;;;;;;
2021/08/21 01:22:35;;;;;;;;;;;;;;;;;;;;;
2021/08/21 01:26:15;;;;;;;;;;;;;;;;;;;;;
2021/08/21 01:29:38;;;;;;;3.22;1.55;;;;;;;16.57;72.91;92972.59;4940492;29;20028;-94
2021/08/21 01:33:04;;;;;;;;;;;;;;;;;;;;;
2021/08/21 01:36:47;;;;;;;;;;;;;;;;;;;;;
2021/08/21 01:43:18;;;;;;;;;;;;;;;;;;;;;
2021/08/21 01:46:30;;;;;;;1.10;0.90;;;;;;;16.43;73.24;92968.22;4961362;29;20707;-94
2021/08/21 01:52:35;;;;;;;2.15;1.25;;;;;;;16.38;73.11;92970.25;4952711;29;20114;-93
2021/08/21 01:55:23;;;;;;;;;;;;;;;;;;;;;
2021/08/21 02:01:41;;;;;;;2.10;1.35;;;;;;;16.37;73.18;92968.69;4960590;29;20062;-94
2021/08/21 02:05:04;;;;;;;2.67;1.63;;;;;;;16.33;73.10;92965.91;4947239;29;20111;-94
2021/08/21 02:07:57;;;;;;;;;;;;;;;;;;;;;
2021/08/21 02:11:06;;;;;;;;;;;;;;;;;;;;;
2021/08/21 02:14:23;;;;;;;1.75;1.20;;;;;;;16.27;73.62;92961.84;4962998;28;20114;-93
2021/08/21 02:21:20;;;;;;;;;;;;;;;;;;;;;
2021/08/21 02:24:31;;;;;;;2.50;1.30;;;;;;;16.28;73.46;92963.44;4938205;29;20040;-93
2021/08/21 02:31:38;;;;;;;1.88;1.23;;;;;;;16.24;73.41;92960.63;4940084;29;20047;-93
2021/08/21 02:38:26;;;;;;;;;;;;;;;;;;;;;
2021/08/21 02:41:49;;;;;;;2.90;1.42;;;;;;;16.22;73.55;92951.44;4934093;29;20042;-94
2021/08/21 02:47:56;;;;;;;;;;;;;;;;;;;;;
2021/08/21 02:51:22;;;;;;;2.88;1.80;;;;;;;16.18;73.77;92950.50;4948214;29;20186;-94
2021/08/21 02:54:17;;;;;;;1.60;1.30;;;;;;;16.21;73.77;92957.81;4926049;29;20047;-94
2021/08/21 02:57:31;;;;;;;2.00;1.27;;;;;;;16.18;73.66;92955.78;4911817;29;20056;-94
2021/08/21 03:00:43;;;;;;;;;;;;;;;;;;;;;
2021/08/21 03:04:38;;;;;;;;;;;;;;;;;;;;;
2021/08/21 03:08:33;;;;;;;;;;;;;;;;;;;;;
2021/08/21 03:11:55;;;;;;;3.30;1.75;;;;;;;16.15;73.85;92954.53;4926573;29;20126;-94
2021/08/21 03:22:03;;;;;;;;;;;;;;;;;;;;;
2021/08/21 03:28:23;;;;;;;;;;;;;;;;;;;;;
2021/08/21 03:31:22;;;;;;;3.00;1.48;;;;;;;16.11;74.16;92953.59;4941469;29;20115;-94
2021/08/21 03:34:22;;;;;;;;;;;;;;;;;;;;;
2021/08/21 03:37:38;;;;;;;1.98;1.30;;;;;;;16.18;74.10;92971.63;4955477;29;20556;-94
2021/08/21 03:40:43;;;;;;;;;;;;;;;;;;;;;
2021/08/21 03:44:04;;;;;;;3.47;2.42;;;;;;;16.11;73.75;92955.47;4950232;29;20150;-93
2021/08/21 03:47:37;;;;;;;1.95;1.45;;;;;;;16.20;74.06;92970.25;4863482;29;20471;-94
2021/08/21 03:58:18;;;;;;;1.10;0.95;;;;;;;16.09;74.90;92957.66;4929034;29;20078;-93
2021/08/21 04:05:00;;;;;;;1.83;1.38;;;;;;;16.06;75.16;92966.19;4930720;29;20102;-93
2021/08/21 04:08:19;;;;;;;;;;;;;;;;;;;;;
2021/08/21 04:15:31;;;;;;;3.05;1.48;;;;;;;15.92;75.33;92964.44;4885239;29;20384;-94
2021/08/21 04:18:47;;;;;;;;;;;;;;;;;;;;;
2021/08/21 04:25:45;;;;;;;2.35;1.33;;;;;;;15.86;76.23;92970.94;4915878;29;20469;-93
2021/08/21 04:28:40;;;;;;;2.28;1.35;;;;;;;15.87;76.27;92977.78;4901540;29;20048;-93
2021/08/21 04:31:37;;;;;;;;;;;;;;;;;;;;;
2021/08/21 04:34:35;;;;;;;;;;;;;;;;;;;;;
2021/08/21 04:41:08;;;;;;;2.83;1.35;;;;;;;15.82;76.60;92980.56;4937381;29;20050;-94
2021/08/21 04:43:39;;;;;;;2.53;1.30;;;;;;;15.81;76.42;92977.16;4923953;29;20161;-94
2021/08/21 04:46:44;;;;;;;;;;;;;;;;;;;;;
2021/08/21 04:49:56;;;;;;;;;;;;;;;;;;;;;
2021/08/21 04:52:46;;;;;;;;;;;;;;;;;;;;;
2021/08/21 04:56:13;;;;;;;;;;;;;;;;;;;;;
2021/08/21 05:02:57;;;;;;;;;;;;;;;;;;;;;
2021/08/21 05:09:36;;;;;;;;;;;;;;;;;;;;;
2021/08/21 05:13:10;;;;;;;;;;;;;;;;;;;;;
2021/08/21 05:16:42;;;;;;;;;;;;;;;;;;;;;
2021/08/21 05:20:05;;;;;;;;;;;;;;;;;;;;;
2021/08/21 05:23:39;;;;;;;;;;;;;;;;;;;;;
2021/08/21 05:26:47;;;;;;;;;;;;;;;;;;;;;
2021/08/21 05:30:07;;;;;;;5.28;2.03;;;;;;;17.32;73.04;93001.50;4906101;29;20131;-95
2021/08/21 05:33:38;;;;;;;1.77;1.02;;;;;;;17.53;72.47;93018.25;4904725;29;20051;-93
2021/08/21 05:40:12;;;;;;;5.90;2.30;;;;;;;17.64;71.85;93013.38;4913593;29;20052;-94
2021/08/21 05:43:59;;;;;;;1.73;1.15;;;;;;;17.76;72.19;93020.66;4860752;29;20168;-94
2021/08/21 05:47:50;;;;;;;;;;;;;;;;;;;;;
2021/08/21 05:50:26;;;;;;;5.68;1.83;;;;;;;18.02;72.17;93026.66;4898787;29;20491;-93
2021/08/21 05:53:14;;;;;;;1.45;1.25;;;;;;;18.07;71.83;93020.41;4909764;29;20050;-94
2021/08/21 05:59:18;;;;;;;;;;;;;;;;;;;;;
2021/08/21 06:02:14;;;;;;;;;;;;;;;;;;;;;
2021/08/21 06:05:38;;;;;;;;;;;;;;;;;;;;;
2021/08/21 06:08:46;;;;;;;2.40;1.65;;;;;;;19.22;70.05;93036.00;4916982;29;20059;-93
2021/08/21 06:11:30;;;;;;;;;;;;;;;;;;;;;
2021/08/21 06:15:01;;;;;;;;;;;;;;;;;;;;;
2021/08/21 06:18:07;;;;;;;;;;;;;;;;;;;;;
2021/08/21 06:33:41;;;;;;;;;;;;;;;;;;;;;
2021/08/21 06:37:05;;;;;;;;;;;;;;;;;;;;;
2021/08/21 06:40:48;;;;;;;;;;;;;;;;;;;;;
2021/08/21 06:47:07;;;;;;;2.35;1.60;;;;;;;22.84;59.98;93056.13;4885676;29;20536;-94
2021/08/21 06:55:14;;;;;;;;;;;;;;;;;;;;;
2021/08/21 06:58:48;;;;;;;;;;;;;;;;;;;;;
2021/08/21 07:09:32;;;;;;;3.75;2.17;;;;;;;21.46;66.26;93073.69;5028215;23;20055;-79
2021/08/21 07:11:58;;;;;;;3.08;2.08;;;;;;;21.38;66.51;93080.72;4979548;28;20053;-80
2021/08/21 07:14:24;;;;;;;3.72;2.00;;;;;;;20.76;68.11;93072.88;4981949;28;20332;-79
2021/08/21 07:16:50;;;;;;;2.72;1.63;;;;;;;20.52;69.40;93075.53;4991635;28;20046;-80
2021/08/21 07:19:15;;;;;;;2.80;1.63;;;;;;;20.45;67.63;93075.34;5015107;28;20038;-79
2021/08/21 07:21:41;;;;;;;3.47;1.90;;;;;;;20.04;68.13;93077.84;4999673;28;20057;-78
2021/08/21 07:24:07;;;;;;;2.20;1.60;;;;;;;20.10;67.12;93073.84;4999436;28;20033;-80
2021/08/21 07:26:33;;;;;;;4.32;2.10;;;;;;;20.25;66.61;93074.34;5015960;28;20407;-81
2021/08/21 07:28:58;;;;;;;2.95;1.85;;;;;;;19.75;67.64;93068.94;5012914;28;20049;-80
2021/08/21 07:31:24;;;;;;;3.38;1.95;;;;;;;20.08;67.48;93065.44;4976826;28;20127;-80
2021/08/21 07:33:50;;;;;;;3.47;1.90;;;;;;;20.28;67.46;93063.03;5016882;28;20041;-81
2021/08/21 07:36:15;;;;;;;3.45;1.80;;;;;;;20.50;67.30;93059.16;5013716;28;20052;-80
2021/08/21 07:38:41;;;;;;;3.17;1.88;;;;;;;20.75;66.73;93065.25;5015300;28;20117;-80
2021/08/21 07:41:06;;;;;;;4.30;1.85;;;;;;;20.97;66.41;93061.31;5013619;28;20046;-80
2021/08/21 07:43:32;;;;;;;3.00;2.00;;;;;;;21.15;65.81;93064.47;4999035;28;20173;-81
2021/08/21 07:45:58;;;;;;;2.92;1.85;;;;;;;21.39;65.09;93074.25;4996700;28;20052;-79
2021/08/21 07:48:23;;;;;;;3.42;1.73;;;;;;;21.33;67.26;93071.06;4979407;28;20093;-80
2021/08/21 07:50:49;;;;;;;2.65;1.90;;;;;;;20.86;68.64;93074.31;4990209;28;20039;-78
2021/08/21 07:53:15;;;;;;;4.90;2.47;;;;;;;20.88;69.29;93073.97;5002012;28;20125;-78
2021/08/21 07:55:41;;;;;;;3.63;2.45;;;;;;;21.30;67.46;93073.63;4978662;28;20068;-77
2021/08/21 07:58:07;;;;;;;4.63;2.00;;;;;;;21.88;66.57;93081.28;4988784;28;20069;-77
2021/08/21 08:00:33;;;;;;;3.42;2.22;;;;;;;22.30;63.66;93070.16;4990968;28;20039;-77
2021/08/21 08:02:59;;;;;;;2.75;1.60;;;;;;;22.85;61.04;93069.13;5001955;28;20058;-78
2021/08/21 08:05:25;;;;;;;3.38;1.70;;;;;;;23.18;60.23;93073.25;4994314;28;20042;-76
2021/08/21 08:07:51;;;;;;;2.88;1.58;;;;;;;22.92;61.53;93079.19;4995116;28;20413;-81
2021/08/21 08:10:17;;;;;;;3.10;1.90;;;;;;;22.52;62.55;93088.19;4977646;28;20097;-81
2021/08/21 08:12:43;;;;;;;4.43;1.75;;;;;;;21.90;64.41;93087.81;4989139;28;20569;-82
2021/08/21 08:15:10;;;;;;;2.78;1.77;;;;;;;22.21;64.12;93088.97;5005903;28;20480;-82
2021/08/21 08:17:36;;;;;;;3.47;2.03;;;;;;;22.09;63.93;93092.47;4987925;28;20607;-81
2021/08/21 08:20:06;;;;;;;4.72;2.25;;;;;;;22.47;64.19;93091.13;4985835;28;20128;-82
2021/08/21 08:22:32;;;;;;;2.80;1.92;;;;;;;22.77;62.27;93094.09;4987775;28;20072;-82
2021/08/21 08:24:57;;;;;;;3.83;1.92;;;;;;;22.63;62.36;93093.78;5006437;28;20113;-82
2021/08/21 08:27:24;;;;;;;4.03;2.15;;;;;;;22.71;61.69;93094.72;5002064;28;20133;-81
2021/08/21 08:29:49;;;;;;;3.50;1.80;;;;;;;22.48;62.88;93094.56;4987051;28;20039;-81
2021/08/21 08:32:15;;;;;;;3.03;1.80;;;;;;;22.11;64.63;93103.59;4976732;28;20050;-81
2021/08/21 08:34:41;;;;;;;5.57;1.95;;;;;;;22.42;64.28;93099.38;5001016;28;20055;-82
2021/08/21 08:37:09;;;;;;;3.75;2.50;;;;;;;22.61;62.79;93101.38;5006380;28;20539;-82
2021/08/21 08:39:36;;;;;;;3.60;1.75;;;;;;;22.72;62.70;93102.38;4989860;28;20033;-83
2021/08/21 08:42:02;;;;;;;3.33;1.95;;;;;;;22.92;62.34;93103.22;4987908;28;20062;-82
2021/08/21 08:44:31;;;;;;;4.03;1.88;;;;;;;23.06;62.37;93110.78;4987599;28;20101;-82
2021/08/21 08:46:56;;;;;;;3.22;1.67;;;;;;;22.69;63.56;93110.28;4986088;28;20039;-82
2021/08/21 08:49:23;;;;;;;3.30;2.00;;;;;;;22.94;64.39;93114.28;4984991;28;20452;-82
2021/08/21 08:51:49;;;;;;;2.88;1.88;;;;;;;21.80;66.11;93114.97;5003801;28;20044;-82
2021/08/21 08:54:15;;;;;;;4.22;2.15;;;;;;;22.13;65.54;93122.66;5006410;28;20058;-82
2021/08/21 08:56:41;;;;;;;4.07;2.13;;;;;;;22.74;62.67;93118.03;4985455;28;20125;-82
2021/08/21 08:59:06;;;;;;;3.42;1.90;;;;;;;22.89;62.53;93117.22;4992690;28;20132;-79
2021/08/21 09:01:32;;;;;;;2.58;1.60;;;;;;;;;;4983601;28;20129;-83
2021/08/21 09:04:21;;;;;;;3.08;2.10;;;;;;;22.89;58.46;93117.22;4984362;28;20051;-83
2021/08/21 09:06:47;;;;;;;4.78;2.65;;;;;;;22.92;61.32;93116.56;4964069;28;20046;-83
2021/08/21 09:09:15;;;;;;;4.30;2.35;;;;;;;23.23;57.66;93114.94;5022109;28;20049;-83
2021/08/21 09:11:47;;;;;;;2.90;2.10;;;;;;;23.33;55.22;93111.72;5006247;28;20050;-83
2021/08/21 09:14:21;;;;;;;3.17;1.90;;;;;;;23.28;55.67;93106.63;5005106;28;20041;-83
2021/08/21 09:16:48;;;;;;;3.90;2.10;;;;;;;23.47;57.01;93112.00;5022464;28;20046;-84
2021/08/21 09:19:23;;;;;;;4.00;1.98;;;;;;;23.46;56.88;93113.13;5004431;28;20061;-84
2021/08/21 09:21:59;;;;;;;2.70;1.65;;;;;;;23.44;57.22;93115.38;5017979;28;20046;-84
2021/08/21 09:24:25;;;;;;;2.92;1.67;;;;;;;23.39;53.94;93120.97;5013740;28;20044;-84
2021/08/21 09:26:52;;;;;;;3.30;1.75;;;;;;;23.35;56.75;93112.16;5020358;28;20041;-83
2021/08/21 09:29:27;;;;;;;5.55;2.60;;;;;;;23.24;53.17;93109.25;5012530;28;20381;-84
2021/08/21 09:32:06;;;;;;;3.83;2.15;;;;;;;23.36;53.27;93119.03;5007094;28;20053;-82
2021/08/21 09:34:32;;;;;;;2.85;1.75;;;;;;;23.23;54.57;93115.69;4999054;28;20054;-83
2021/08/21 09:36:58;;;;;;;2.95;2.10;;;;;;;23.65;51.75;93119.59;4983165;28;20072;-83
2021/08/21 09:39:41;;;;;;;3.63;2.08;;;;;;;23.29;54.95;93113.53;4999608;28;20133;-82
2021/08/21 09:42:09;;;;;;;2.58;1.77;;;;;;;23.95;53.27;93108.34;5010300;28;20541;-82
2021/08/21 09:44:37;;;;;;;4.63;2.38;;;;;;;23.95;53.13;93119.03;5020161;28;20422;-83
2021/08/21 09:47:11;;;;;;;2.63;1.52;;;;;;;23.49;55.55;93122.34;5018948;28;20067;-83
2021/08/21 09:49:37;;;;;;;2.55;1.73;;;;;;;23.49;56.52;93122.34;5018386;28;20389;-79
2021/08/21 09:52:11;;;;;;;3.78;2.38;;;;;;;23.67;56.58;93117.34;4982466;28;20057;-84
2021/08/21 09:54:42;;;;;;;3.95;2.47;;;;;;;23.83;53.85;93109.28;5014484;28;20038;-82
2021/08/21 09:57:11;;;;;;;4.43;2.58;;;;;;;23.49;56.59;93111.66;5021274;28;20104;-84
2021/08/21 09:59:39;;;;;;;6.13;1.92;;;;;;;23.87;56.29;93110.13;5003610;28;20491;-83
2021/08/21 10:02:14;;;;;;;3.67;2.10;;;;;;;23.92;56.50;93109.06;5020190;28;20046;-83
2021/08/21 10:04:42;;;;;;;2.72;1.60;;;;;;;24.15;55.10;93109.06;5023028;28;20046;-83
2021/08/21 10:07:16;;;;;;;5.57;2.47;;;;;;;24.18;55.16;93114.47;5019847;28;20134;-84
2021/08/21 10:09:43;;;;;;;4.32;2.10;;;;;;;23.96;56.17;93112.53;4985167;28;20100;-83
2021/08/21 10:12:13;;;;;;;3.88;2.17;;;;;;;23.98;54.58;93112.97;5002463;28;20113;-84
2021/08/21 10:14:42;;;;;;;2.58;1.70;;;;;;;23.55;55.43;93112.91;5004156;28;20038;-83
2021/08/21 10:17:09;;;;;;;3.67;1.98;;;;;;;23.59;55.79;93118.31;4999702;28;20061;-84
2021/08/21 10:19:37;;;;;;;4.43;2.70;;;;;;;23.46;57.75;93107.78;5000589;28;20034;-84
2021/08/21 10:22:04;;;;;;;3.03;1.88;;;;;;;23.78;54.31;93113.00;5020034;28;20072;-84
2021/08/21 10:24:43;;;;;;;5.55;1.95;;;;;;;24.05;55.93;93105.09;5018030;28;20080;-83
2021/08/21 10:27:26;;;;;;;5.95;2.00;;;;;;;24.16;54.12;93110.59;5001603;28;20053;-83
2021/08/21 10:30:04;;;;;;;7.00;2.45;;;;;;;24.32;53.66;93113.97;5021110;28;20045;-82
2021/08/21 10:32:35;;;;;;;2.75;1.60;;;;;;;24.21;55.19;93113.78;5017151;28;20064;-83
2021/08/21 10:35:02;;;;;;;4.43;2.47;;;;;;;24.69;52.60;93106.16;4996507;28;20068;-80
2021/08/21 10:37:30;;;;;;;3.33;1.70;;;;;;;24.43;53.54;93114.13;5016460;28;20046;-81
2021/08/21 10:39:56;;;;;;;3.42;2.22;;;;;;;24.79;51.88;93106.66;4984053;28;20057;-81
2021/08/21 10:42:22;;;;;;;4.30;2.65;;;;;;;24.92;53.71;93103.41;5009973;28;20041;-83
2021/08/21 10:44:50;;;;;;;3.92;2.20;;;;;;;24.91;53.25;93109.16;4982190;28;20038;-82
2021/08/21 10:47:31;;;;;;;6.00;2.97;;;;;;;24.01;53.31;93104.25;4999631;28;20060;-83
2021/08/21 10:50:26;;;;;;;1.90;1.48;;;;;;;24.28;54.83;93103.19;4982386;28;20062;-82
2021/08/21 10:52:56;;;;;;;3.90;1.83;;;;;;;24.57;53.94;93102.91;4998716;28;20034;-81
2021/08/21 10:55:24;;;;;;;4.10;2.40;;;;;;;24.75;53.25;93106.63;4998878;28;20081;-82
2021/08/21 10:58:02;;;;;;;3.60;1.88;;;;;;;25.14;53.05;93101.81;4998413;28;20034;-81
2021/08/21 11:00:42;;;;;;;2.38;1.60;;;;;;;24.89;54.05;93101.47;4990347;28;20034;-84
2021/08/21 11:03:12;;;;;;;3.35;2.03;;;;;;;24.83;50.26;93099.47;4997678;28;20048;-83
2021/08/21 11:06:00;;;;;;;3.97;2.05;;;;;;;24.69;52.57;93106.16;5017935;28;20411;-81
2021/08/21 11:08:31;;;;;;;2.78;1.88;;;;;;;24.77;52.83;93100.91;5017666;28;20464;-82
2021/08/21 11:11:07;;;;;;;;;;;;;;;24.85;51.64;93099.88;4998544;28;20057;-84
2021/08/21 11:13:59;;;;;;;1.75;1.33;;;;;;;24.87;52.02;93100.28;5010521;28;19988;-82
2021/08/21 11:17:00;;;;;;;3.78;2.58;;;;;;;24.78;52.17;93100.53;4980294;28;20033;-82
2021/08/21 11:19:45;;;;;;;2.67;1.73;;;;;;;24.78;52.98;93097.09;4987267;28;20046;-82
2021/08/21 11:22:25;;;;;;;3.03;1.67;;;;;;;24.79;54.71;93094.06;4996468;28;20082;-81
2021/08/21 11:24:53;;;;;;;4.22;2.22;;;;;;;24.97;53.02;93099.69;4993854;28;20041;-80
2021/08/21 11:27:22;;;;;;;3.13;1.92;;;;;;;25.00;53.97;93096.28;4985780;28;20046;-80
2021/08/21 11:30:06;;;;;;;4.10;1.92;;;;;;;25.16;51.03;93098.00;4983183;28;20482;-81
2021/08/21 11:32:40;;;;;;;5.18;2.45;;;;;;;24.77;51.53;93099.00;5015645;28;20513;-79
2021/08/21 11:35:06;;;;;;;2.90;1.80;;;;;;;25.20;50.10;93088.16;5016766;28;20452;-80
2021/08/21 11:37:33;;;;;;;4.35;2.40;;;;;;;24.82;51.69;93092.56;5010038;28;20052;-80
2021/08/21 11:39:59;;;;;;;2.90;1.90;;;;;;;25.40;49.17;93091.44;4999948;28;20807;-81
2021/08/21 11:42:44;;;;;;;3.78;1.95;;;;;;;25.02;50.12;93090.56;5016266;28;20045;-81
2021/08/21 11:45:13;;;;;;;2.40;1.73;;;;;;;25.16;50.08;93084.63;4998198;28;20752;-80
2021/08/21 11:47:39;;;;;;;3.60;2.20;;;;;;;24.95;50.53;93091.25;5016609;28;20049;-80
2021/08/21 11:50:36;;;;;;;8.38;2.00;;;;;;;24.91;51.30;93090.41;5015283;28;20126;-81
2021/08/21 11:53:10;;;;;;;2.97;1.88;;;;;;;25.16;51.93;93082.72;4994386;28;20076;-80
2021/08/21 11:55:38;;;;;;;2.67;1.77;;;;;;;25.38;51.52;93089.16;5010701;28;20034;-80
2021/08/21 11:58:06;;;;;;;3.78;2.25;;;;;;;25.57;51.28;93085.53;5013994;28;20034;-80
2021/08/21 12:00:35;;;;;;;2.53;1.73;;;;;;;24.87;51.25;93089.59;4987525;28;20081;-80
2021/08/21 12:03:04;;;;;;;4.82;2.08;;;;;;;25.13;50.79;93084.22;4997467;28;20092;-81
2021/08/21 12:05:44;;;;;;;4.00;2.05;;;;;;;25.75;52.05;93083.81;5011363;28;20034;-80
2021/08/21 12:08:14;;;;;;;3.50;2.00;;;;;;;25.85;52.74;93081.59;5011642;28;20108;-81
2021/08/21 12:11:01;;;;;;;5.22;2.70;;;;;;;26.02;50.41;93093.69;5012600;28;20034;-81
2021/08/21 12:13:37;;;;;;;2.55;1.73;;;;;;;25.63;51.22;93088.66;5013933;28;20119;-81
2021/08/21 12:16:12;;;;;;;3.08;2.00;;;;;;;25.10;52.40;93079.56;4998493;28;20457;-81
2021/08/21 12:18:40;;;;;;;3.75;2.05;;;;;;;25.16;51.32;93085.38;4996106;28;20044;-80
2021/08/21 12:21:09;;;;;;;3.50;2.08;;;;;;;25.34;50.72;93075.69;5015243;28;20046;-80
2021/08/21 12:23:35;;;;;;;1.98;1.50;;;;;;;25.37;51.46;93068.81;5013489;28;20490;-80
2021/08/21 12:26:03;;;;;;;3.00;1.85;;;;;;;25.59;49.17;93069.09;5014904;28;20094;-81
2021/08/21 12:28:44;;;;;;;4.63;2.42;;;;;;;25.32;50.82;93074.50;4977539;28;20453;-81
2021/08/21 12:31:12;;;;;;;4.32;2.30;;;;;;;25.44;50.52;93076.94;5004703;28;20393;-82
2021/08/21 12:33:43;;;;;;;3.38;2.05;;;;;;;25.62;49.90;93069.09;4997986;28;20037;-82
2021/08/21 12:36:19;;;;;;;3.70;1.83;;;;;;;25.53;51.67;93071.31;5013792;28;20551;-80
2021/08/21 12:39:05;;;;;;;2.92;1.98;;;;;;;25.78;49.08;93066.22;4986089;28;20466;-81
2021/08/21 12:41:33;;;;;;;3.50;2.13;;;;;;;26.06;49.75;93065.75;5018389;28;20129;-82
2021/08/21 12:44:14;;;;;;;3.70;2.20;;;;;;;25.92;49.10;93071.75;5015768;28;20034;-82
2021/08/21 12:47:01;;;;;;;3.55;2.03;;;;;;;25.80;48.78;93063.94;5016850;28;20045;-82
2021/08/21 12:49:42;;;;;;;4.18;2.72;;;;;;;25.92;49.49;93071.75;5018238;28;20120;-82
2021/08/21 12:52:13;;;;;;;4.23;2.10;;;;;;;25.53;48.47;93066.75;5017252;28;20121;-82
2021/08/21 12:54:43;;;;;;;6.47;2.40;;;;;;;25.54;49.03;93072.88;4985664;28;20097;-81
2021/08/21 12:57:20;;;;;;;4.38;2.38;;;;;;;25.54;50.24;93072.88;4984129;28;20064;-82
2021/08/21 13:00:07;;;;;;;3.90;2.13;;;;;;;25.72;47.90;93065.03;5020956;28;20038;-81
2021/08/21 13:02:46;;;;;;;4.95;2.47;;;;;;;25.71;50.27;93063.47;5006571;28;20045;-82
2021/08/21 13:05:23;;;;;;;5.55;2.38;;;;;;;25.52;49.99;93065.19;5017278;28;20049;-82
2021/08/21 13:07:51;;;;;;;2.63;1.60;;;;;;;25.72;49.23;93059.66;5016992;28;20050;-80
2021/08/21 13:10:20;;;;;;;5.03;2.33;;;;;;;25.76;50.08;93063.16;4997906;28;20045;-84
2021/08/21 13:12:46;;;;;;;3.00;1.73;;;;;;;25.83;48.96;93057.09;5002084;28;20144;-81
2021/08/21 13:15:14;;;;;;;2.90;1.73;;;;;;;25.50;49.81;93055.97;4998901;28;20044;-82
2021/08/21 13:17:40;;;;;;;2.33;1.45;;;;;;;25.29;50.32;93051.16;5017802;28;20132;-84
2021/08/21 13:20:08;;;;;;;2.38;1.63;;;;;;;25.14;49.99;93060.88;4986233;28;20105;-82
2021/08/21 13:22:34;;;;;;;4.32;2.28;;;;;;;25.41;50.54;93056.25;5016119;28;20108;-82
2021/08/21 13:25:00;;;;;;;4.35;2.40;;;;;;;25.06;51.71;93049.31;5013777;28;20041;-84
2021/08/21 13:27:26;;;;;;;3.08;1.88;;;;;;;25.57;49.82;93044.56;5002476;28;20488;-82
2021/08/21 13:29:53;;;;;;;2.70;1.58;;;;;;;25.42;48.86;93051.66;5015601;28;20037;-82
2021/08/21 13:32:19;;;;;;;2.40;1.55;;;;;;;25.21;50.04;93046.81;4994491;28;20050;-83
2021/08/21 13:34:45;;;;;;;3.05;1.98;;;;;;;25.37;49.96;93047.38;5000043;28;20335;-83
2021/08/21 13:37:12;;;;;;;3.38;1.95;;;;;;;25.49;50.27;93039.13;4998357;28;20053;-83
2021/08/21 13:39:39;;;;;;;3.33;2.20;;;;;;;25.15;49.57;93051.69;5013293;28;20045;-80
2021/08/21 13:42:06;;;;;;;3.42;1.88;;;;;;;25.24;49.02;93040.72;5011456;28;20061;-81
2021/08/21 13:44:32;;;;;;;3.47;2.03;;;;;;;25.67;50.35;93049.25;4995943;28;20038;-82
2021/08/21 13:47:03;;;;;;;3.60;1.85;;;;;;;25.51;49.41;93044.88;5015500;28;20732;-80
2021/08/21 13:49:29;;;;;;;3.03;1.80;;;;;;;25.82;50.39;93044.81;4985806;28;20129;-80
2021/08/21 13:51:55;;;;;;;3.10;1.50;;;;;;;25.76;47.41;93047.06;4995686;28;20034;-80
2021/08/21 13:54:20;;;;;;;2.05;1.38;;;;;;;25.49;49.19;93039.13;5000197;28;20044;-84
2021/08/21 13:56:47;;;;;;;3.30;2.00;;;;;;;25.64;47.58;93041.94;5016652;28;20366;-83
2021/08/21 13:59:12;;;;;;;3.42;2.10;;;;;;;25.58;47.73;93035.38;4983948;28;20104;-83
2021/08/21 14:01:38;;;;;;;4.82;2.03;;;;;;;25.62;45.89;93038.84;4990859;28;20034;-79
2021/08/21 14:04:05;;;;;;;3.28;1.83;;;;;;;25.78;46.48;93034.03;4981507;28;20053;-82
2021/08/21 14:09:07;;;;;;;11.98;2.50;;;;;;;25.63;49.43;93032.38;5016894;28;20546;-83
2021/08/21 14:11:34;;;;;;;3.90;2.38;;;;;;;25.83;48.10;93032.97;4986151;28;20080;-82
2021/08/21 14:14:01;;;;;;;4.30;2.30;;;;;;;25.42;49.23;93020.28;5017843;28;20053;-84
2021/08/21 14:16:26;;;;;;;3.22;2.03;;;;;;;25.86;49.38;93024.94;4990388;28;20030;-80
2021/08/21 14:18:52;;;;;;;2.90;1.65;;;;;;;25.70;48.53;93022.47;5001425;28;20064;-81
2021/08/21 14:21:18;;;;;;;3.80;2.20;;;;;;;26.06;50.36;93022.84;4985077;28;20392;-75
2021/08/21 14:23:44;;;;;;;2.67;1.80;;;;;;;25.60;49.24;93023.16;4981195;28;20056;-81
2021/08/21 14:26:10;;;;;;;3.40;2.10;;;;;;;25.30;49.60;93025.88;4991858;28;20034;-83
2021/08/21 14:28:38;;;;;;;3.20;2.10;;;;;;;25.24;49.71;93028.13;4995434;28;20042;-82
2021/08/21 14:31:04;;;;;;;3.42;2.00;;;;;;;25.60;49.21;93023.16;4986246;28;20038;-81
2021/08/21 14:33:29;;;;;;;4.50;1.88;;;;;;;25.67;48.96;93022.44;4967389;28;20037;-80
2021/08/21 14:35:55;;;;;;;2.45;1.67;;;;;;;25.82;46.95;93023.34;4983804;28;20408;-82
2021/08/21 14:38:21;;;;;;;4.80;2.25;;;;;;;25.68;49.08;93015.94;5009650;28;20652;-83
2021/08/21 14:40:47;;;;;;;3.65;2.25;;;;;;;26.16;48.41;93016.81;5007808;28;20057;-83
2021/08/21 14:43:12;;;;;;;4.88;2.42;;;;;;;26.18;50.57;93019.88;5014234;28;20045;-82
2021/08/21 14:45:38;;;;;;;4.60;2.58;;;;;;;26.25;46.03;93011.09;4965995;28;20045;-82
2021/08/21 14:48:05;;;;;;;3.08;1.85;;;;;;;26.42;45.68;93011.63;5005298;28;20054;-79
2021/08/21 14:50:31;;;;;;;4.40;2.33;;;;;;;25.69;47.84;93004.06;5011092;28;20099;-77
2021/08/21 14:53:01;;;;;;;4.18;2.00;;;;;;;25.39;49.99;93007.59;4989999;28;20057;-76
2021/08/21 14:55:27;;;;;;;2.63;1.60;;;;;;;26.08;47.90;93014.44;4970157;28;20069;-77
2021/08/21 14:57:52;;;;;;;6.60;2.40;;;;;;;25.44;48.43;93012.63;4990183;28;20076;-76
2021/08/21 15:00:18;;;;;;;6.07;2.63;;;;;;;25.94;48.96;93005.13;5010771;28;20077;-77
2021/08/21 15:02:44;;;;;;;2.33;1.80;;;;;;;26.26;48.32;93004.63;5006680;28;20076;-77
2021/08/21 15:05:09;;;;;;;6.85;2.30;;;;;;;25.68;51.28;93005.22;4976895;28;20520;-77
2021/08/21 15:07:35;;;;;;;3.90;2.22;;;;;;;25.93;49.24;93003.56;4993427;28;20050;-77
2021/08/21 15:10:02;;;;;;;3.63;2.25;;;;;;;25.90;46.98;93003.56;4994942;28;20100;-77
2021/08/21 15:12:28;;;;;;;3.22;2.22;;;;;;;26.09;47.75;93003.31;5012989;28;20088;-77
2021/08/21 15:14:53;;;;;;;4.15;2.53;;;;;;;25.84;48.61;93002.31;5012996;28;20034;-77
2021/08/21 15:17:19;;;;;;;3.75;2.20;;;;;;;26.32;46.88;92995.09;4977486;28;20559;-77
2021/08/21 15:19:45;;;;;;;3.53;2.20;;;;;;;25.77;49.48;92994.97;5011673;28;20405;-77
2021/08/21 15:22:11;;;;;;;3.88;2.28;;;;;;;26.21;47.83;92996.13;4969677;28;20039;-77
2021/08/21 15:24:39;;;;;;;4.20;2.15;;;;;;;26.70;46.26;92995.72;4976303;28;20046;-78
2021/08/21 15:27:06;;;;;;;4.70;2.28;;;;;;;26.48;46.99;92994.81;5003070;28;20025;-77
2021/08/21 15:29:33;;;;;;;4.10;2.17;;;;;;;26.74;46.32;92991.13;4979383;28;20050;-77
2021/08/21 15:31:59;;;;;;;3.50;1.95;;;;;;;26.42;46.22;92990.16;4994354;28;20145;-77
2021/08/21 15:34:25;;;;;;;4.05;2.03;;;;;;;25.74;47.97;92985.75;4988253;28;20050;-76
2021/08/21 15:36:53;;;;;;;3.65;2.22;;;;;;;25.90;48.95;92992.81;4965083;28;20073;-77
2021/08/21 15:39:19;;;;;;;4.38;2.30;;;;;;;26.04;47.02;92986.81;5011843;28;20343;-77
2021/08/21 15:41:45;;;;;;;4.13;2.60;;;;;;;26.02;48.93;92997.13;4995161;28;20137;-77
2021/08/21 15:44:10;;;;;;;3.25;2.05;;;;;;;26.29;47.68;92993.13;4987477;28;20469;-77
2021/08/21 15:46:36;;;;;;;4.55;2.65;;;;;;;26.58;46.30;92999.47;5007921;28;20133;-77
2021/08/21 15:49:04;;;;;;;3.45;2.22;;;;;;;26.30;46.88;92989.31;4983284;28;20054;-77
2021/08/21 15:51:30;;;;;;;4.50;2.47;;;;;;;25.68;49.13;92981.88;5009573;28;20403;-78
2021/08/21 15:53:56;;;;;;;5.30;2.85;;;;;;;26.27;48.87;92984.66;5005229;28;20488;-78
2021/08/21 15:56:22;;;;;;;4.25;2.42;;;;;;;26.36;46.92;92979.75;5012529;28;20057;-77
2021/08/21 15:58:47;;;;;;;4.45;2.40;;;;;;;26.43;46.36;92980.94;4994769;28;20050;-77
2021/08/21 16:01:13;;;;;;;11.40;2.63;;;;;;;26.58;46.39;92979.94;4993725;28;20042;-78
2021/08/21 16:03:39;;;;;;;6.63;2.50;;;;;;;26.79;47.02;92977.38;4978205;28;20128;-77
2021/08/21 16:06:05;;;;;;;4.03;1.98;;;;;;;26.99;46.77;92979.75;4977480;28;20128;-77
2021/08/21 16:08:45;;;;;;;4.75;2.33;;;;;;;27.09;46.19;92978.25;4980233;28;20063;-77
2021/08/21 16:11:13;;;;;;;3.95;2.00;;;;;;;26.72;47.10;92981.91;4955335;28;20042;-77
2021/08/21 16:13:40;;;;;;;5.25;2.45;;;;;;;26.62;45.33;92982.66;4939769;28;20043;-77
2021/08/21 16:16:07;;;;;;;4.13;2.40;;;;;;;26.66;47.06;92973.47;4972825;28;20054;-77
2021/08/21 16:18:33;;;;;;;4.35;2.40;;;;;;;26.67;49.84;92979.59;4955945;28;20627;-77